Time;durP1;ratioP1;P1;durP2;ratioP2;P2;SDS_P1;SDS_P2;PMS_P1;PMS_P2;Temp;Humidity;BMP_temperature;BMP_pressure;BME280_temperature;BME280_humidity;BME280_pressure;Samples;Min_cycle;Max_cycle;Signal;HPM_P1;HPM_P2
2024/03/31 00:01:03;;;;;;;17.75;4.50;;;10.80;99.90;;;;;;4996454;28;20617;-79
2024/03/31 00:03:29;;;;;;;22.45;4.22;;;10.80;99.90;;;;;;4996137;28;20545;-79
2024/03/31 00:05:55;;;;;;;27.30;4.50;;;10.80;99.90;;;;;;4996803;28;20014;-79
2024/03/31 00:08:21;;;;;;;25.02;5.68;;;10.70;99.90;;;;;;4998836;28;20496;-79
2024/03/31 00:10:47;;;;;;;21.85;4.75;;;10.60;99.90;;;;;;4999096;28;20116;-77
2024/03/31 00:13:12;;;;;;;18.88;4.57;;;10.60;99.90;;;;;;4999206;28;20030;-78
2024/03/31 00:15:38;;;;;;;13.43;3.38;;;10.70;99.90;;;;;;4997806;28;20038;-77
2024/03/31 00:18:04;;;;;;;23.67;5.50;;;10.70;99.90;;;;;;4999676;28;20128;-77
2024/03/31 00:20:29;;;;;;;18.50;3.50;;;10.60;99.90;;;;;;4999505;28;20492;-77
2024/03/31 00:22:55;;;;;;;14.20;3.13;;;11.20;99.90;;;;;;5000110;28;20034;-76
2024/03/31 00:25:21;;;;;;;9.52;1.90;;;11.40;99.90;;;;;;4999832;28;20049;-77
2024/03/31 00:27:46;;;;;;;15.45;3.45;;;11.60;99.90;;;;;;5000072;28;20037;-77
2024/03/31 00:30:12;;;;;;;17.05;3.20;;;11.00;99.90;;;;;;5000147;28;20049;-77
2024/03/31 00:32:38;;;;;;;13.25;3.15;;;10.90;99.90;;;;;;4999133;28;20050;-76
2024/03/31 00:35:04;;;;;;;19.23;3.22;;;10.70;99.90;;;;;;5000276;28;20030;-77
2024/03/31 00:37:29;;;;;;;21.10;3.85;;;10.80;99.90;;;;;;5000070;28;20377;-76
2024/03/31 00:39:55;;;;;;;15.77;4.13;;;10.80;99.90;;;;;;4999613;28;20034;-77
2024/03/31 00:42:21;;;;;;;9.13;2.65;;;10.60;99.90;;;;;;5000160;28;20037;-77
2024/03/31 00:44:47;;;;;;;12.38;3.38;;;10.60;99.90;;;;;;4999177;28;20771;-76
2024/03/31 00:47:12;;;;;;;13.38;3.60;;;10.60;99.90;;;;;;4999484;28;20030;-76
2024/03/31 00:49:38;;;;;;;12.05;2.30;;;10.70;99.90;;;;;;4999264;28;20535;-76
2024/03/31 00:52:04;;;;;;;18.20;4.35;;;10.70;99.90;;;;;;4999831;28;20029;-77
2024/03/31 00:54:32;;;;;;;9.88;2.10;;;10.70;99.90;;;;;;5000394;28;20496;-77
2024/03/31 00:56:58;;;;;;;9.90;1.70;;;10.80;99.90;;;;;;5003275;28;20045;-77
2024/03/31 00:59:24;;;;;;;10.93;2.20;;;10.90;99.90;;;;;;5003310;28;20038;-77
2024/03/31 01:01:50;;;;;;;9.52;1.50;;;11.00;99.90;;;;;;5003500;28;20476;-76
2024/03/31 01:04:16;;;;;;;8.70;2.30;;;11.00;99.90;;;;;;5002962;28;20038;-77
2024/03/31 01:06:42;;;;;;;9.18;2.13;;;10.90;99.90;;;;;;5002617;28;20488;-76
2024/03/31 01:09:08;;;;;;;15.45;3.63;;;10.90;99.90;;;;;;5002149;28;20037;-77
2024/03/31 01:11:35;;;;;;;11.73;3.22;;;10.80;99.90;;;;;;5003459;28;20489;-76
2024/03/31 01:14:03;;;;;;;13.75;3.65;;;10.70;99.90;;;;;;5002910;28;20589;-77
2024/03/31 01:16:29;;;;;;;9.70;2.55;;;10.60;99.90;;;;;;5002753;28;20554;-77
2024/03/31 01:18:55;;;;;;;14.07;2.42;;;10.60;99.90;;;;;;5002456;28;20053;-77
2024/03/31 01:21:22;;;;;;;6.85;1.42;;;10.60;99.90;;;;;;5003382;28;20112;-77
2024/03/31 01:23:59;;;;;;;5.18;1.40;;;10.80;99.90;;;;;;5002429;28;20038;-79
2024/03/31 01:26:24;;;;;;;6.28;0.80;;;10.90;99.90;;;;;;5003077;28;20389;-80
2024/03/31 01:28:50;;;;;;;4.85;1.20;;;11.00;99.90;;;;;;5002521;28;20038;-78
2024/03/31 01:31:16;;;;;;;5.97;1.27;;;11.00;99.90;;;;;;5002704;28;20072;-79
2024/03/31 01:33:42;;;;;;;6.05;1.52;;;11.00;99.90;;;;;;5002300;28;20030;-79
2024/03/31 01:36:08;;;;;;;6.47;1.73;;;11.00;99.90;;;;;;5002703;28;20092;-78
2024/03/31 01:38:33;;;;;;;8.85;1.17;;;11.10;99.90;;;;;;5003154;28;20523;-79
2024/03/31 01:40:59;;;;;;;6.40;1.48;;;11.00;99.90;;;;;;5002870;28;20053;-78
2024/03/31 01:43:25;;;;;;;3.63;0.90;;;10.90;99.90;;;;;;5003022;28;20022;-79
2024/03/31 01:45:51;;;;;;;1.38;0.32;;;10.90;99.90;;;;;;5001935;28;20054;-78
2024/03/31 01:48:18;;;;;;;4.95;0.82;;;10.80;99.90;;;;;;5002699;28;20061;-78
2024/03/31 01:50:44;;;;;;;2.25;0.40;;;10.80;99.90;;;;;;5002804;28;20030;-79
2024/03/31 01:53:10;;;;;;;4.15;0.60;;;10.90;99.90;;;;;;5002645;28;20057;-78
2024/03/31 01:55:35;;;;;;;3.38;0.50;;;10.90;99.90;;;;;;5002802;28;20164;-79
2024/03/31 01:58:01;;;;;;;3.30;0.82;;;10.90;99.90;;;;;;5001553;28;20072;-79
2024/03/31 02:00:27;;;;;;;3.97;1.15;;;10.70;99.90;;;;;;5002404;28;20045;-79
2024/03/31 02:02:53;;;;;;;2.38;1.05;;;10.80;99.90;;;;;;5002247;28;20168;-78
2024/03/31 02:05:18;;;;;;;1.95;0.40;;;10.80;99.90;;;;;;5001379;28;20033;-78
2024/03/31 02:07:44;;;;;;;2.92;1.00;;;10.70;99.90;;;;;;5002477;28;20045;-79
2024/03/31 02:10:10;;;;;;;1.80;0.35;;;10.70;99.90;;;;;;5001909;28;20408;-79
2024/03/31 02:12:39;;;;;;;3.38;0.88;;;10.70;99.90;;;;;;5002239;28;20030;-79
2024/03/31 02:15:05;;;;;;;7.00;2.40;;;10.60;99.90;;;;;;5001587;28;20037;-79
2024/03/31 02:17:31;;;;;;;1.33;0.38;;;10.50;99.90;;;;;;5001380;28;20104;-79
2024/03/31 02:19:57;;;;;;;0.63;0.30;;;10.40;99.90;;;;;;5002004;28;20039;-79
2024/03/31 02:22:23;;;;;;;1.80;0.40;;;10.30;99.90;;;;;;5002406;28;20538;-78
2024/03/31 02:24:48;;;;;;;1.02;0.50;;;10.20;99.90;;;;;;5000872;28;20034;-78
2024/03/31 02:27:14;;;;;;;0.63;0.15;;;10.20;99.90;;;;;;5001926;28;20077;-79
2024/03/31 02:29:40;;;;;;;2.40;0.40;;;10.10;99.90;;;;;;5001891;28;20470;-79
2024/03/31 02:32:06;;;;;;;2.67;0.40;;;10.20;99.90;;;;;;5000467;28;20045;-78
2024/03/31 02:34:32;;;;;;;2.63;1.08;;;10.20;99.90;;;;;;5001391;28;20034;-79
2024/03/31 02:36:57;;;;;;;2.33;0.30;;;10.30;99.90;;;;;;5001293;28;20038;-79
2024/03/31 02:39:23;;;;;;;0.05;0.00;;;10.30;99.90;;;;;;5001268;28;20044;-79
2024/03/31 02:41:50;;;;;;;0.45;0.20;;;10.30;99.90;;;;;;5001638;28;20116;-79
2024/03/31 02:44:16;;;;;;;1.17;0.25;;;10.30;99.90;;;;;;5001489;28;20053;-79
2024/03/31 02:46:42;;;;;;;3.15;0.30;;;10.40;99.90;;;;;;5001467;28;20050;-79
2024/03/31 02:49:08;;;;;;;1.20;0.30;;;10.40;99.90;;;;;;5000957;28;20140;-79
2024/03/31 02:51:35;;;;;;;3.05;0.35;;;10.40;99.90;;;;;;5001166;28;20038;-78
2024/03/31 02:54:01;;;;;;;3.60;0.40;;;10.60;99.90;;;;;;5001500;28;20038;-79
2024/03/31 02:56:26;;;;;;;2.05;0.60;;;10.60;99.90;;;;;;5000792;28;20576;-78
2024/03/31 02:58:52;;;;;;;3.95;1.15;;;10.60;99.90;;;;;;5001303;28;20041;-79
2024/03/31 03:01:17;;;;;;;2.25;0.70;;;10.40;99.90;;;;;;5000662;28;20041;-79
2024/03/31 03:03:45;;;;;;;1.65;0.43;;;10.30;99.90;;;;;;4996763;28;20127;-79
2024/03/31 03:06:10;;;;;;;0.40;0.40;;;10.40;99.90;;;;;;4997293;28;20108;-80
2024/03/31 03:08:36;;;;;;;2.40;0.20;;;10.50;99.90;;;;;;4998024;28;20455;-79
2024/03/31 03:11:03;;;;;;;0.50;0.20;;;10.50;99.90;;;;;;4997825;28;20063;-79
2024/03/31 03:13:29;;;;;;;3.97;0.90;;;10.50;99.90;;;;;;4997449;28;20752;-78
2024/03/31 03:15:54;;;;;;;2.00;0.50;;;10.50;99.90;;;;;;4997076;28;20140;-79
2024/03/31 03:18:21;;;;;;;2.55;1.15;;;10.40;99.90;;;;;;4994711;28;21385;-79
2024/03/31 03:20:47;;;;;;;6.55;1.00;;;10.50;99.90;;;;;;4995591;28;20392;-79
2024/03/31 03:23:13;;;;;;;1.05;0.52;;;10.40;99.90;;;;;;4995099;28;20033;-79
2024/03/31 03:25:38;;;;;;;1.05;0.20;;;10.20;99.90;;;;;;4995433;28;20052;-79
2024/03/31 03:28:05;;;;;;;2.75;0.43;;;10.10;99.90;;;;;;4995220;28;20465;-79
2024/03/31 03:30:31;;;;;;;0.75;0.40;;;10.00;99.90;;;;;;4995132;28;20038;-79
2024/03/31 03:32:56;;;;;;;1.63;0.52;;;10.00;99.90;;;;;;4995218;28;20036;-79
2024/03/31 03:35:23;;;;;;;6.68;0.80;;;10.10;99.90;;;;;;4994152;28;20109;-79
2024/03/31 03:37:49;;;;;;;4.03;1.10;;;10.20;99.90;;;;;;4996590;28;20488;-79
2024/03/31 03:40:14;;;;;;;6.20;0.60;;;10.20;99.90;;;;;;4997821;28;20072;-79
2024/03/31 03:42:40;;;;;;;3.70;0.50;;;10.10;99.90;;;;;;4997496;28;20037;-79
2024/03/31 03:45:07;;;;;;;3.25;0.43;;;10.00;99.90;;;;;;4996724;28;20428;-79
2024/03/31 03:47:33;;;;;;;1.52;0.30;;;9.90;99.90;;;;;;4997546;28;20041;-79
2024/03/31 03:49:59;;;;;;;4.18;0.63;;;10.10;99.90;;;;;;4997431;28;20025;-79
2024/03/31 03:52:24;;;;;;;2.70;0.60;;;10.20;99.90;;;;;;4993669;28;20353;-79
2024/03/31 03:54:50;;;;;;;1.10;0.50;;;10.20;99.90;;;;;;4994179;28;20104;-79
2024/03/31 03:57:16;;;;;;;1.67;0.47;;;10.40;99.90;;;;;;4993759;28;20092;-79
2024/03/31 03:59:41;;;;;;;3.17;0.40;;;10.50;99.90;;;;;;4994855;28;22232;-79
2024/03/31 04:02:07;;;;;;;4.43;0.40;;;10.50;99.90;;;;;;4993920;28;20076;-79
2024/03/31 04:04:33;;;;;;;2.42;0.52;;;10.50;99.90;;;;;;4994840;28;20040;-79
2024/03/31 04:07:00;;;;;;;2.75;0.50;;;10.50;99.90;;;;;;4995199;28;20117;-79
2024/03/31 04:09:26;;;;;;;6.80;1.05;;;10.50;99.90;;;;;;4996299;28;20018;-79
2024/03/31 04:11:52;;;;;;;2.47;0.65;;;10.40;99.90;;;;;;4996919;28;20052;-80
2024/03/31 04:14:17;;;;;;;2.15;0.63;;;10.30;99.90;;;;;;4997347;28;20026;-79
2024/03/31 04:16:43;;;;;;;5.15;1.38;;;10.20;99.90;;;;;;4997951;28;20038;-78
2024/03/31 04:19:09;;;;;;;5.45;2.00;;;10.30;99.90;;;;;;4996936;28;20041;-78
2024/03/31 04:21:34;;;;;;;6.82;2.00;;;10.40;99.90;;;;;;4996784;28;20365;-79
2024/03/31 04:24:01;;;;;;;5.85;1.58;;;10.40;99.90;;;;;;4996946;28;20037;-79
2024/03/31 04:26:27;;;;;;;6.97;1.80;;;10.40;99.90;;;;;;4996590;28;20460;-79
2024/03/31 04:28:53;;;;;;;7.25;1.67;;;10.40;99.90;;;;;;4996795;28;20034;-79
2024/03/31 04:31:19;;;;;;;4.13;1.40;;;10.40;99.90;;;;;;5000975;28;21494;-79
2024/03/31 04:33:45;;;;;;;4.32;1.20;;;10.30;99.90;;;;;;5000350;28;20499;-79
2024/03/31 04:36:11;;;;;;;4.63;1.02;;;10.30;99.90;;;;;;5000339;28;20030;-79
2024/03/31 04:38:37;;;;;;;5.30;1.10;;;10.30;99.90;;;;;;5000680;28;20041;-79
2024/03/31 04:41:03;;;;;;;8.73;1.33;;;10.30;99.90;;;;;;5000617;28;20084;-79
2024/03/31 04:43:29;;;;;;;4.55;0.75;;;10.30;99.90;;;;;;5000353;28;20080;-79
2024/03/31 04:46:08;;;;;;;2.67;0.70;;;10.40;99.90;;;;;;4998255;28;20054;-79
2024/03/31 04:48:36;;;;;;;2.67;0.77;;;10.30;99.90;;;;;;4998386;28;20072;-79
2024/03/31 04:51:06;;;;;;;3.25;0.85;;;10.30;99.90;;;;;;4998419;28;21155;-79
2024/03/31 04:53:33;;;;;;;3.40;0.68;;;10.30;99.90;;;;;;4999655;28;20025;-79
2024/03/31 04:56:03;;;;;;;4.25;1.02;;;10.30;99.90;;;;;;4998476;28;20132;-79
2024/03/31 04:58:29;;;;;;;5.35;1.77;;;10.20;99.90;;;;;;4994864;28;20522;-79
2024/03/31 05:00:55;;;;;;;3.03;0.90;;;10.20;99.90;;;;;;4992747;28;20429;-80
2024/03/31 05:03:23;;;;;;;3.38;1.10;;;10.00;99.90;;;;;;4992938;28;21061;-79
2024/03/31 05:05:49;;;;;;;2.60;0.50;;;9.90;99.90;;;;;;4994420;28;20128;-79
2024/03/31 05:08:14;;;;;;;2.47;0.60;;;9.90;99.90;;;;;;4994587;28;20040;-80
2024/03/31 05:10:40;;;;;;;1.98;0.40;;;9.90;99.90;;;;;;4993802;28;20042;-79
2024/03/31 05:13:06;;;;;;;1.70;0.60;;;9.90;99.90;;;;;;4994682;28;20060;-79
2024/03/31 05:15:31;;;;;;;1.75;0.35;;;9.90;99.90;;;;;;4993555;28;20034;-79
2024/03/31 05:17:57;;;;;;;7.45;1.60;;;9.90;99.90;;;;;;4993260;28;20384;-79
2024/03/31 05:20:23;;;;;;;1.08;0.60;;;10.00;99.90;;;;;;4993994;28;21436;-79
2024/03/31 05:22:48;;;;;;;4.63;1.48;;;10.10;99.90;;;;;;4993762;28;20457;-78
2024/03/31 05:25:15;;;;;;;3.63;1.00;;;10.10;99.90;;;;;;4993082;28;20041;-79
2024/03/31 05:27:41;;;;;;;4.15;1.55;;;10.20;99.90;;;;;;4992531;28;20257;-79
2024/03/31 05:30:07;;;;;;;4.45;1.40;;;10.30;99.90;;;;;;4993519;28;20034;-79
2024/03/31 05:32:33;;;;;;;5.88;0.90;;;10.20;99.90;;;;;;4993828;28;20585;-80
2024/03/31 05:34:59;;;;;;;3.92;0.82;;;10.20;99.90;;;;;;4993285;28;20026;-79
2024/03/31 05:37:24;;;;;;;2.00;0.70;;;10.30;99.90;;;;;;4993561;28;20492;-79
2024/03/31 05:39:50;;;;;;;1.98;0.70;;;10.30;99.90;;;;;;4993083;28;20050;-79
2024/03/31 05:42:17;;;;;;;4.32;0.63;;;10.50;99.90;;;;;;4995120;28;20080;-80
2024/03/31 05:44:43;;;;;;;1.63;1.00;;;10.50;99.90;;;;;;4996697;28;20050;-79
2024/03/31 05:47:09;;;;;;;2.55;0.85;;;10.60;99.90;;;;;;4992548;28;20044;-79
2024/03/31 05:49:34;;;;;;;5.45;0.93;;;10.50;99.90;;;;;;4993279;28;20459;-79
2024/03/31 05:52:00;;;;;;;2.35;0.57;;;10.30;99.90;;;;;;4992491;28;20108;-79
2024/03/31 05:54:26;;;;;;;3.78;0.90;;;10.30;99.90;;;;;;4992310;28;20410;-79
2024/03/31 05:56:51;;;;;;;4.73;1.00;;;10.40;99.90;;;;;;4993363;28;20239;-79
2024/03/31 05:59:17;;;;;;;5.38;0.82;;;10.40;99.90;;;;;;4993747;28;20057;-79
2024/03/31 06:01:42;;;;;;;6.35;1.75;;;10.40;99.90;;;;;;4992493;28;20044;-78
2024/03/31 06:04:08;;;;;;;3.72;0.80;;;10.30;99.90;;;;;;4993324;28;20645;-79
2024/03/31 06:06:34;;;;;;;5.68;1.15;;;10.20;99.90;;;;;;4992134;28;20041;-79
2024/03/31 06:08:59;;;;;;;7.28;2.15;;;10.20;99.90;;;;;;4996800;28;20030;-78
2024/03/31 06:11:25;;;;;;;3.80;1.10;;;10.10;99.90;;;;;;4995540;28;20108;-78
2024/03/31 06:13:51;;;;;;;4.63;1.40;;;10.10;99.90;;;;;;4992437;28;20520;-80
2024/03/31 06:16:16;;;;;;;5.13;1.50;;;10.10;99.90;;;;;;4992171;28;20037;-81
2024/03/31 06:18:43;;;;;;;7.20;1.50;;;10.10;99.90;;;;;;4991844;28;20070;-81
2024/03/31 06:21:09;;;;;;;2.42;1.00;;;10.10;99.90;;;;;;4990789;28;20117;-79
2024/03/31 06:23:35;;;;;;;6.00;1.15;;;10.20;99.90;;;;;;4989833;28;20935;-78
2024/03/31 06:26:02;;;;;;;5.35;1.10;;;10.30;99.90;;;;;;4992182;28;20030;-80
2024/03/31 06:28:29;;;;;;;4.78;1.40;;;10.20;99.90;;;;;;4991819;28;20041;-80
2024/03/31 06:30:54;;;;;;;5.15;1.10;;;10.30;99.90;;;;;;4992146;28;20061;-79
2024/03/31 06:33:20;;;;;;;4.55;1.10;;;10.40;99.90;;;;;;4990247;28;20108;-78
2024/03/31 06:35:46;;;;;;;4.30;2.47;;;10.50;99.90;;;;;;4990997;28;20061;-78
2024/03/31 06:38:12;;;;;;;7.57;2.95;;;10.60;99.90;;;;;;4990464;28;20040;-79
2024/03/31 06:40:37;;;;;;;4.90;1.75;;;10.60;99.90;;;;;;4991144;28;20749;-79
2024/03/31 06:43:06;;;;;;;2.05;1.08;;;10.60;99.90;;;;;;4990883;28;20052;-79
2024/03/31 06:45:32;;;;;;;4.65;1.38;;;10.70;99.90;;;;;;4990542;28;20129;-79
2024/03/31 06:47:58;;;;;;;4.40;1.20;;;10.70;99.90;;;;;;4991024;28;20061;-79
2024/03/31 06:50:24;;;;;;;3.50;1.13;;;10.70;99.90;;;;;;4988274;28;20065;-79
2024/03/31 06:52:50;;;;;;;3.17;1.10;;;10.80;99.90;;;;;;4989043;28;20531;-79
2024/03/31 06:55:16;;;;;;;8.18;1.30;;;10.80;99.90;;;;;;4992362;28;20026;-80
2024/03/31 06:57:41;;;;;;;1.90;1.08;;;10.70;99.90;;;;;;4997003;28;20565;-82
2024/03/31 07:00:08;;;;;;;5.63;1.27;;;10.70;99.90;;;;;;4991554;28;20037;-81
2024/03/31 07:02:34;;;;;;;4.63;1.25;;;10.70;99.90;;;;;;4992027;28;20037;-83
2024/03/31 07:05:00;;;;;;;7.32;1.55;;;10.70;99.90;;;;;;4991499;28;20034;-82
2024/03/31 07:07:26;;;;;;;4.38;1.13;;;10.70;99.90;;;;;;4989879;28;20089;-82
2024/03/31 07:09:51;;;;;;;5.20;0.90;;;10.80;99.90;;;;;;4993314;28;20032;-83
2024/03/31 07:12:17;;;;;;;3.10;1.35;;;10.80;99.90;;;;;;4991314;28;20040;-84
2024/03/31 07:14:43;;;;;;;6.85;2.15;;;10.90;99.90;;;;;;4990513;28;20030;-83
2024/03/31 07:17:09;;;;;;;8.80;4.05;;;11.10;99.90;;;;;;4990845;28;20038;-85
2024/03/31 07:19:35;;;;;;;9.00;4.18;;;11.10;99.90;;;;;;4990871;28;20481;-84
2024/03/31 07:22:01;;;;;;;11.77;4.85;;;11.10;99.90;;;;;;4992500;28;21196;-84
2024/03/31 07:24:26;;;;;;;8.23;3.53;;;11.00;99.90;;;;;;4992022;28;20038;-84
2024/03/31 07:26:52;;;;;;;4.72;2.67;;;11.00;99.90;;;;;;4991143;28;20046;-83
2024/03/31 07:29:17;;;;;;;8.63;2.70;;;10.90;99.90;;;;;;4993268;28;20037;-83
2024/03/31 07:31:43;;;;;;;4.88;1.92;;;10.80;99.90;;;;;;4990839;28;20061;-84
2024/03/31 07:34:09;;;;;;;8.75;2.63;;;10.70;99.90;;;;;;4992167;28;20060;-85
2024/03/31 07:36:34;;;;;;;8.02;1.60;;;10.50;99.90;;;;;;4990779;28;20090;-85
2024/03/31 07:39:01;;;;;;;3.90;1.50;;;10.50;99.90;;;;;;4990271;28;20038;-84
2024/03/31 07:41:26;;;;;;;2.13;1.02;;;10.50;99.90;;;;;;4991387;28;20651;-84
2024/03/31 07:43:52;;;;;;;3.63;1.52;;;10.50;99.90;;;;;;4989439;28;20038;-82
2024/03/31 07:46:18;;;;;;;4.70;1.40;;;10.40;99.90;;;;;;4990227;28;20053;-84
2024/03/31 07:48:43;;;;;;;3.33;1.02;;;10.30;99.90;;;;;;4992719;28;20514;-84
2024/03/31 07:51:09;;;;;;;6.28;1.73;;;10.20;99.90;;;;;;4991244;28;20128;-84
2024/03/31 07:53:35;;;;;;;4.75;1.10;;;10.20;99.90;;;;;;4991404;28;20030;-83
2024/03/31 07:56:01;;;;;;;7.50;1.20;;;10.20;99.90;;;;;;4992047;28;20034;-84
2024/03/31 07:58:27;;;;;;;3.70;1.13;;;10.20;99.90;;;;;;4991312;28;20911;-85
2024/03/31 08:00:56;;;;;;;2.80;0.93;;;10.30;99.90;;;;;;4989027;28;20097;-82
2024/03/31 08:03:23;;;;;;;9.27;1.17;;;10.30;99.90;;;;;;4992589;28;20038;-84
2024/03/31 08:05:49;;;;;;;5.88;1.10;;;10.30;99.90;;;;;;4995227;28;20137;-84
2024/03/31 08:08:14;;;;;;;4.65;1.27;;;10.30;99.90;;;;;;4995305;28;20442;-83
2024/03/31 08:10:44;;;;;;;4.97;1.70;;;10.40;99.90;;;;;;4993872;28;20038;-83
2024/03/31 08:13:11;;;;;;;5.95;1.83;;;10.40;99.90;;;;;;4994773;28;20034;-84
2024/03/31 08:15:38;;;;;;;8.98;1.75;;;10.50;99.90;;;;;;4994653;28;20042;-82
2024/03/31 08:18:04;;;;;;;5.55;1.40;;;10.40;99.90;;;;;;4996065;28;20467;-84
2024/03/31 08:20:31;;;;;;;4.10;1.45;;;10.30;99.90;;;;;;4994940;28;20037;-84
2024/03/31 08:22:57;;;;;;;3.97;1.33;;;10.30;99.90;;;;;;4993977;28;20037;-84
2024/03/31 08:25:23;;;;;;;3.63;1.50;;;10.30;99.90;;;;;;4995335;28;20026;-84
2024/03/31 08:27:48;;;;;;;6.63;2.00;;;10.30;99.90;;;;;;4992927;28;20072;-84
2024/03/31 08:30:14;;;;;;;3.90;1.20;;;10.30;99.90;;;;;;4994966;28;20042;-84
2024/03/31 08:32:40;;;;;;;2.88;1.25;;;10.40;99.90;;;;;;4995891;28;20048;-84
2024/03/31 08:35:05;;;;;;;4.93;1.60;;;10.30;99.90;;;;;;4997389;28;20030;-84
2024/03/31 08:37:31;;;;;;;5.82;2.30;;;10.40;99.90;;;;;;4993361;28;20081;-84
2024/03/31 08:39:57;;;;;;;4.82;1.45;;;10.40;99.90;;;;;;4996783;28;20065;-84
2024/03/31 08:42:35;;;;;;;4.40;1.27;;;10.30;99.90;;;;;;4999915;28;20740;-84
2024/03/31 08:45:02;;;;;;;4.95;1.20;;;10.30;99.90;;;;;;5000240;28;20112;-84
2024/03/31 08:47:31;;;;;;;5.13;1.00;;;10.30;99.90;;;;;;4999879;28;20033;-83
2024/03/31 08:49:58;;;;;;;5.45;1.08;;;10.10;99.90;;;;;;4993956;28;20041;-85
2024/03/31 08:52:27;;;;;;;3.80;1.15;;;10.10;99.90;;;;;;4997380;28;20088;-81
2024/03/31 08:54:57;;;;;;;5.82;1.52;;;10.40;99.90;;;;;;4999229;28;20030;-82
2024/03/31 08:57:22;;;;;;;4.03;1.13;;;10.70;99.90;;;;;;5002143;28;20050;-83
2024/03/31 08:59:49;;;;;;;13.13;4.18;;;10.80;99.90;;;;;;5005495;28;20099;-82
2024/03/31 09:02:18;;;;;;;5.95;2.72;;;10.80;99.90;;;;;;5003379;28;20057;-84
2024/03/31 09:04:44;;;;;;;4.38;2.13;;;10.80;99.90;;;;;;5000057;28;20159;-81
2024/03/31 09:07:10;;;;;;;6.80;1.60;;;10.70;99.90;;;;;;5002147;28;20368;-82
2024/03/31 09:09:40;;;;;;;4.05;1.55;;;10.70;99.90;;;;;;5010895;28;20082;-80
2024/03/31 09:12:09;;;;;;;6.55;1.65;;;10.50;99.90;;;;;;5011813;28;20041;-80
2024/03/31 09:14:37;;;;;;;5.68;1.27;;;10.50;99.90;;;;;;5009506;28;20069;-80
2024/03/31 09:17:06;;;;;;;4.32;1.30;;;10.50;99.90;;;;;;5012244;28;20122;-79
2024/03/31 09:19:31;;;;;;;5.97;2.92;;;10.50;99.90;;;;;;5012590;28;20036;-81
2024/03/31 09:21:57;;;;;;;8.63;3.95;;;10.50;99.90;;;;;;5012324;28;20033;-82
2024/03/31 09:24:23;;;;;;;8.23;3.80;;;10.50;99.90;;;;;;5004495;28;20061;-82
2024/03/31 09:26:49;;;;;;;6.47;2.80;;;10.50;99.90;;;;;;4998104;28;20480;-86
2024/03/31 09:29:15;;;;;;;7.40;3.60;;;10.50;99.90;;;;;;4999041;28;20029;-82
2024/03/31 09:31:41;;;;;;;6.55;4.28;;;10.50;99.90;;;;;;4997786;28;20038;-81
2024/03/31 09:34:07;;;;;;;10.85;6.00;;;10.50;99.90;;;;;;4998978;28;20038;-81
2024/03/31 09:36:37;;;;;;;12.48;7.40;;;10.50;99.90;;;;;;4998070;28;20040;-79
2024/03/31 09:39:03;;;;;;;10.65;7.05;;;10.40;99.90;;;;;;4998262;28;20045;-79
2024/03/31 09:41:30;;;;;;;8.57;4.50;;;10.50;99.90;;;;;;4998065;28;20034;-81
2024/03/31 09:43:56;;;;;;;6.95;3.60;;;10.60;99.90;;;;;;5000464;28;20040;-80
2024/03/31 09:46:21;;;;;;;9.38;4.53;;;10.60;99.90;;;;;;4999228;28;20062;-79
2024/03/31 09:48:50;;;;;;;12.98;5.32;;;10.60;99.90;;;;;;4999390;28;20113;-82
2024/03/31 09:51:20;;;;;;;10.88;3.10;;;10.70;99.90;;;;;;4996021;28;20037;-80
2024/03/31 09:53:58;;;;;;;9.27;2.80;;;10.60;99.90;;;;;;4998022;28;20041;-81
2024/03/31 09:56:35;;;;;;;8.88;3.22;;;10.60;99.90;;;;;;4996501;28;20038;-78
2024/03/31 09:59:03;;;;;;;5.30;2.10;;;10.60;99.90;;;;;;4997378;28;20049;-80
2024/03/31 10:01:32;;;;;;;10.25;2.58;;;10.70;99.90;;;;;;4996815;28;20034;-79
2024/03/31 10:04:07;;;;;;;6.10;2.28;;;10.90;99.90;;;;;;4997563;28;20038;-77
2024/03/31 10:06:33;;;;;;;7.72;2.20;;;11.00;99.90;;;;;;4996926;28;20041;-79
2024/03/31 10:09:00;;;;;;;5.43;1.88;;;11.10;99.90;;;;;;4995740;28;20639;-80
2024/03/31 10:11:26;;;;;;;6.30;2.67;;;11.20;99.90;;;;;;4995763;28;20639;-79
2024/03/31 10:13:53;;;;;;;10.68;2.40;;;11.30;99.90;;;;;;4995895;28;20065;-79
2024/03/31 10:16:20;;;;;;;8.80;2.83;;;11.30;99.90;;;;;;4997278;28;20040;-80
2024/03/31 10:18:47;;;;;;;7.30;2.63;;;11.20;99.90;;;;;;4997551;28;20060;-77
2024/03/31 10:21:13;;;;;;;4.43;2.42;;;11.20;99.90;;;;;;4996985;28;20124;-79
2024/03/31 10:23:40;;;;;;;6.28;2.42;;;11.10;99.90;;;;;;4997466;28;20066;-78
2024/03/31 10:26:08;;;;;;;8.82;2.40;;;11.00;99.90;;;;;;4996332;28;20034;-76
2024/03/31 10:28:35;;;;;;;7.90;2.40;;;11.00;99.90;;;;;;4997032;28;20454;-81
2024/03/31 10:31:01;;;;;;;4.43;2.38;;;11.00;99.90;;;;;;4995972;28;20042;-78
2024/03/31 10:33:27;;;;;;;5.50;2.60;;;11.00;99.90;;;;;;4997125;28;20041;-79
2024/03/31 10:35:53;;;;;;;5.25;2.08;;;10.90;99.90;;;;;;4997993;28;20042;-79
2024/03/31 10:38:19;;;;;;;7.75;3.35;;;11.00;99.90;;;;;;4996551;28;20048;-78
2024/03/31 10:40:46;;;;;;;5.78;2.20;;;11.10;99.90;;;;;;4992129;28;20033;-78
2024/03/31 10:43:12;;;;;;;6.93;2.58;;;11.00;99.90;;;;;;4995349;28;20034;-77
2024/03/31 10:45:38;;;;;;;7.22;1.98;;;10.90;99.90;;;;;;4996891;28;20057;-78
2024/03/31 10:48:05;;;;;;;7.50;3.42;;;10.80;99.90;;;;;;4998749;28;20048;-82
2024/03/31 10:50:31;;;;;;;6.28;2.20;;;10.90;99.90;;;;;;4995817;28;20030;-78
2024/03/31 10:52:56;;;;;;;4.63;2.20;;;10.80;99.90;;;;;;4997133;28;20034;-76
2024/03/31 10:55:22;;;;;;;10.13;4.10;;;10.70;99.90;;;;;;4995452;28;20033;-77
2024/03/31 10:58:00;;;;;;;7.53;3.38;;;10.90;99.90;;;;;;4995300;28;20044;-77
2024/03/31 11:00:34;;;;;;;4.07;2.42;;;11.00;99.90;;;;;;4995675;28;21315;-78
2024/03/31 11:03:07;;;;;;;5.88;2.10;;;11.00;99.90;;;;;;4994143;28;20038;-76
2024/03/31 11:05:33;;;;;;;8.07;3.67;;;11.20;99.90;;;;;;4996038;28;20042;-77
2024/03/31 11:07:59;;;;;;;5.00;2.50;;;11.20;99.90;;;;;;4996344;28;20041;-80
2024/03/31 11:10:25;;;;;;;5.65;2.58;;;11.10;99.90;;;;;;4997514;28;20044;-80
2024/03/31 11:12:51;;;;;;;5.38;2.88;;;10.90;99.90;;;;;;4994327;28;20038;-80
2024/03/31 11:15:18;;;;;;;7.03;2.90;;;10.80;99.90;;;;;;4995927;28;20126;-80
2024/03/31 11:17:44;;;;;;;5.65;2.60;;;10.70;99.90;;;;;;4996827;28;20042;-77
2024/03/31 11:20:12;;;;;;;6.03;3.25;;;10.70;99.90;;;;;;4990597;28;20034;-76
2024/03/31 11:22:38;;;;;;;5.38;2.63;;;10.60;99.90;;;;;;4995264;28;20396;-77
2024/03/31 11:25:08;;;;;;;5.22;2.67;;;10.70;99.90;;;;;;4992762;28;20137;-77
2024/03/31 11:27:34;;;;;;;5.53;2.70;;;10.60;99.90;;;;;;4994604;28;20038;-77
2024/03/31 11:30:02;;;;;;;5.18;2.65;;;10.50;99.90;;;;;;4996527;28;20061;-78
2024/03/31 11:32:32;;;;;;;5.10;2.60;;;10.60;99.90;;;;;;4995387;28;20042;-79
2024/03/31 11:34:59;;;;;;;6.93;2.80;;;10.60;99.90;;;;;;4996821;28;20034;-79
2024/03/31 11:37:25;;;;;;;5.00;2.55;;;10.70;99.90;;;;;;4995391;28;20068;-78
2024/03/31 11:39:57;;;;;;;7.72;3.40;;;10.80;99.90;;;;;;4993432;28;22063;-76
2024/03/31 11:42:25;;;;;;;4.72;2.65;;;10.70;99.90;;;;;;4994861;28;20037;-76
2024/03/31 11:44:52;;;;;;;4.65;3.08;;;10.90;99.90;;;;;;4995580;28;20050;-77
2024/03/31 11:47:17;;;;;;;9.32;2.75;;;11.00;99.90;;;;;;4994582;28;20040;-76
2024/03/31 11:49:43;;;;;;;5.50;2.40;;;11.00;99.90;;;;;;4995725;28;20030;-76
2024/03/31 11:52:09;;;;;;;5.30;2.83;;;11.00;99.90;;;;;;4992081;28;20045;-77
2024/03/31 11:54:35;;;;;;;7.15;2.80;;;11.00;99.90;;;;;;4995532;28;20034;-75
2024/03/31 11:57:03;;;;;;;4.25;2.60;;;11.10;99.90;;;;;;4994771;28;20056;-77
2024/03/31 11:59:28;;;;;;;10.00;3.85;;;11.10;99.90;;;;;;4994598;28;20141;-78
2024/03/31 12:01:59;;;;;;;6.22;2.53;;;11.10;99.90;;;;;;4995170;28;20021;-78
2024/03/31 12:04:31;;;;;;;3.83;2.20;;;11.00;99.90;;;;;;4989004;28;20594;-75
2024/03/31 12:06:58;;;;;;;6.75;2.78;;;10.80;99.90;;;;;;4991971;28;20591;-76
2024/03/31 12:09:23;;;;;;;5.22;2.38;;;10.90;99.90;;;;;;4994329;28;21268;-76
2024/03/31 12:11:49;;;;;;;5.47;2.13;;;10.80;99.90;;;;;;4995369;28;20125;-78
2024/03/31 12:14:15;;;;;;;44.25;16.00;;;10.80;99.90;;;;;;4997239;28;20095;-76
2024/03/31 12:16:43;;;;;;;370.30;146.00;;;10.70;99.90;;;;;;4998245;28;20034;-77
2024/03/31 12:19:10;;;;;;;136.90;66.03;;;10.60;99.90;;;;;;4995246;28;20049;-81
2024/03/31 12:21:37;;;;;;;72.57;33.53;;;10.60;99.90;;;;;;4995358;28;20060;-78
2024/03/31 12:24:03;;;;;;;44.50;21.27;;;10.70;99.90;;;;;;4989898;28;20038;-77
2024/03/31 12:26:32;;;;;;;29.90;14.23;;;10.90;99.90;;;;;;4991025;28;20052;-77
2024/03/31 12:28:58;;;;;;;21.75;9.40;;;11.20;99.90;;;;;;4992900;28;20042;-76
2024/03/31 12:31:25;;;;;;;10.15;5.55;;;11.50;99.90;;;;;;4993136;28;20115;-76
2024/03/31 12:33:51;;;;;;;6.88;3.45;;;11.40;99.90;;;;;;4993916;28;20030;-77
2024/03/31 12:36:18;;;;;;;5.70;2.28;;;11.30;99.90;;;;;;4994718;28;20492;-78
2024/03/31 12:38:45;;;;;;;4.30;1.85;;;11.00;99.90;;;;;;4994602;28;20042;-77
2024/03/31 12:41:12;;;;;;;5.25;1.60;;;10.90;99.90;;;;;;4994603;28;20038;-79